createdAt,value
2018-06-29T00:01:14.722Z,21.10
2018-06-29T00:03:42.690Z,21.10
2018-06-29T00:06:10.781Z,21.10
2018-06-29T00:08:38.741Z,21.10
2018-06-29T00:11:06.713Z,21.10
2018-06-29T00:13:34.608Z,21.10
2018-06-29T00:16:02.606Z,21.10
2018-06-29T00:18:30.470Z,21.10
2018-06-29T00:20:58.673Z,21.20
2018-06-29T00:23:34.786Z,21.10
2018-06-29T00:26:03.238Z,21.10
2018-06-29T00:28:31.141Z,21.10
2018-06-29T00:30:59.477Z,21.10
2018-06-29T00:33:27.392Z,21.10
2018-06-29T00:35:55.318Z,21.10
2018-06-29T00:38:23.235Z,21.10
2018-06-29T00:40:54.195Z,21.10
2018-06-29T00:43:22.205Z,21.20
2018-06-29T00:45:50.338Z,21.20
2018-06-29T00:48:21.088Z,21.20
2018-06-29T00:50:49.185Z,21.10
2018-06-29T00:53:17.026Z,21.10
2018-06-29T00:55:44.969Z,21.10
2018-06-29T00:58:12.873Z,21.10
2018-06-29T01:00:40.834Z,21.10
2018-06-29T01:03:08.737Z,21.10
2018-06-29T01:05:36.709Z,21.10
2018-06-29T01:08:04.657Z,21.00
2018-06-29T01:10:32.589Z,21.00
2018-06-29T01:13:00.609Z,21.00
2018-06-29T01:15:28.573Z,21.00
2018-06-29T01:17:56.464Z,20.90
2018-06-29T01:20:24.400Z,20.80
2018-06-29T01:22:52.566Z,20.90
2018-06-29T01:25:20.488Z,20.80
2018-06-29T01:27:48.440Z,20.80
2018-06-29T01:30:16.360Z,20.70
2018-06-29T01:32:44.321Z,20.70
2018-06-29T01:35:12.273Z,20.70
2018-06-29T01:37:40.177Z,20.70
2018-06-29T01:40:08.109Z,20.70
2018-06-29T01:42:35.964Z,20.70
2018-06-29T01:45:04.621Z,20.70
2018-06-29T01:47:35.968Z,20.70
2018-06-29T01:50:03.977Z,20.70
2018-06-29T01:52:31.931Z,20.70
2018-06-29T01:54:59.821Z,20.70
2018-06-29T01:59:55.609Z,20.60
2018-06-29T02:02:23.517Z,20.60
2018-06-29T02:04:51.410Z,20.60
2018-06-29T02:07:19.272Z,20.60
2018-06-29T02:09:47.162Z,20.50
2018-06-29T02:12:15.190Z,20.50
2018-06-29T02:14:43.003Z,20.50
2018-06-29T02:17:10.925Z,20.50
2018-06-29T02:19:38.853Z,20.50
2018-06-29T02:22:06.861Z,20.50
2018-06-29T02:24:34.854Z,20.50
2018-06-29T02:27:02.728Z,20.50
2018-06-29T02:29:30.541Z,20.50
2018-06-29T02:31:58.422Z,20.50
2018-06-29T02:36:54.217Z,20.40
2018-06-29T02:39:22.106Z,20.40
2018-06-29T02:41:50.117Z,20.40
2018-06-29T02:46:45.861Z,20.40
2018-06-29T02:49:13.782Z,20.30
2018-06-29T02:51:41.816Z,20.30
2018-06-29T02:54:09.789Z,20.30
2018-06-29T02:56:37.665Z,20.30
2018-06-29T02:59:05.608Z,20.30
2018-06-29T03:01:33.529Z,20.30
2018-06-29T03:04:01.906Z,20.20
2018-06-29T03:06:29.748Z,20.20
2018-06-29T03:08:57.635Z,20.20
2018-06-29T03:11:25.555Z,20.20
2018-06-29T03:13:53.469Z,20.20
2018-06-29T03:16:21.436Z,20.10
2018-06-29T03:18:49.253Z,20.10
2018-06-29T03:21:17.166Z,20.10
2018-06-29T03:23:45.085Z,20.10
2018-06-29T03:26:13.005Z,20.10
2018-06-29T03:28:40.925Z,20.00
2018-06-29T03:31:08.873Z,20.10
2018-06-29T03:36:04.717Z,20.00
2018-06-29T03:38:32.632Z,20.00
2018-06-29T03:41:00.521Z,20.00
2018-06-29T03:43:28.412Z,20.00
2018-06-29T03:45:56.345Z,20.00
2018-06-29T03:48:24.232Z,20.00
2018-06-29T03:50:52.194Z,20.00
2018-06-29T03:53:20.126Z,20.00
2018-06-29T03:55:47.972Z,19.90
2018-06-29T03:58:15.924Z,20.00
2018-06-29T04:00:43.821Z,19.90
2018-06-29T04:03:11.693Z,19.90
2018-06-29T04:05:39.630Z,19.90
2018-06-29T04:08:07.471Z,19.90
2018-06-29T04:10:35.394Z,19.90
2018-06-29T04:13:03.439Z,19.90
2018-06-29T04:15:31.202Z,19.90
2018-06-29T04:17:59.073Z,19.90
2018-06-29T04:20:27.015Z,19.90
2018-06-29T04:22:55.453Z,19.90
2018-06-29T04:25:23.378Z,19.90
2018-06-29T04:27:51.309Z,19.90
2018-06-29T04:30:19.301Z,19.90
2018-06-29T04:32:47.232Z,19.90
2018-06-29T04:35:15.201Z,19.90
2018-06-29T04:40:10.965Z,19.90
2018-06-29T04:42:38.885Z,20.00
2018-06-29T04:45:06.848Z,20.00
2018-06-29T04:47:34.770Z,20.00
2018-06-29T04:50:02.669Z,20.00
2018-06-29T04:52:30.525Z,20.00
2018-06-29T04:54:58.477Z,20.10
2018-06-29T04:57:26.405Z,20.10
2018-06-29T04:59:54.329Z,20.10
2018-06-29T05:02:22.252Z,20.10
2018-06-29T05:04:50.165Z,20.10
2018-06-29T05:07:18.177Z,20.20
2018-06-29T05:09:46.153Z,20.10
2018-06-29T05:12:14.073Z,20.20
2018-06-29T05:14:41.960Z,20.30
2018-06-29T05:17:09.829Z,20.30
2018-06-29T05:19:37.905Z,20.40
2018-06-29T05:22:05.884Z,20.60
2018-06-29T05:24:33.783Z,20.60
2018-06-29T05:27:01.656Z,20.60
2018-06-29T05:29:29.660Z,20.60
2018-06-29T05:31:57.622Z,20.70
2018-06-29T05:34:25.477Z,20.70
2018-06-29T05:36:53.434Z,20.80
2018-06-29T05:39:21.323Z,20.90
2018-06-29T05:41:49.238Z,20.90
2018-06-29T05:44:17.069Z,21.30
2018-06-29T05:46:44.939Z,21.90
2018-06-29T05:49:12.811Z,22.90
2018-06-29T05:51:40.650Z,23.30
2018-06-29T05:56:36.366Z,23.20
2018-06-29T05:59:04.731Z,23.10
2018-06-29T06:01:32.668Z,23.30
2018-06-29T06:04:00.604Z,23.20
2018-06-29T06:06:28.553Z,23.20
2018-06-29T06:08:56.497Z,23.30
2018-06-29T06:11:24.385Z,23.60
2018-06-29T06:13:52.327Z,23.80
2018-06-29T06:16:20.273Z,23.60
2018-06-29T06:18:48.329Z,23.90
2018-06-29T06:21:16.215Z,23.90
2018-06-29T06:23:44.131Z,24.20
2018-06-29T06:26:12.053Z,24.50
2018-06-29T06:28:39.934Z,24.40
2018-06-29T06:31:07.828Z,24.40
2018-06-29T06:33:35.722Z,24.40
2018-06-29T06:36:03.641Z,24.80
2018-06-29T06:38:31.513Z,24.80
2018-06-29T06:40:59.420Z,24.90
2018-06-29T06:43:27.296Z,24.80
2018-06-29T06:48:23.197Z,24.60
2018-06-29T06:50:51.125Z,24.70
2018-06-29T06:53:18.997Z,24.80
2018-06-29T06:55:46.925Z,24.60
2018-06-29T06:58:14.753Z,25.30
2018-06-29T07:00:42.644Z,26.20
2018-06-29T07:03:10.545Z,26.50
2018-06-29T07:05:38.389Z,26.00
2018-06-29T07:08:06.341Z,26.20
2018-06-29T07:10:34.220Z,26.20
2018-06-29T07:13:02.080Z,26.10
2018-06-29T07:15:29.964Z,26.00
2018-06-29T07:17:57.781Z,25.20
2018-06-29T07:20:25.597Z,25.20
2018-06-29T07:22:53.501Z,25.60
2018-06-29T07:25:21.353Z,25.70
2018-06-29T07:27:49.269Z,25.50
2018-06-29T07:30:17.192Z,25.90
2018-06-29T07:32:45.103Z,25.60
2018-06-29T07:35:12.965Z,25.90
2018-06-29T07:37:40.833Z,26.00
2018-06-29T07:40:08.733Z,26.40
2018-06-29T07:42:36.605Z,26.90
2018-06-29T07:45:04.944Z,27.30
2018-06-29T07:47:32.901Z,27.30
2018-06-29T07:50:00.760Z,27.60
2018-06-29T07:52:28.680Z,27.60
2018-06-29T07:54:56.620Z,27.80
2018-06-29T07:57:24.517Z,27.40
2018-06-29T07:59:52.394Z,28.10
2018-06-29T08:02:20.253Z,27.60
2018-06-29T08:04:52.455Z,28.20
2018-06-29T08:07:21.142Z,28.00
2018-06-29T08:09:49.061Z,27.80
2018-06-29T08:12:17.228Z,27.50
2018-06-29T08:14:45.160Z,28.30
2018-06-29T08:17:12.997Z,28.30
2018-06-29T08:19:40.873Z,27.90
2018-06-29T08:22:08.759Z,28.50
2018-06-29T08:24:53.570Z,28.00
2018-06-29T08:27:21.505Z,27.80
2018-06-29T08:29:49.386Z,28.40
2018-06-29T08:32:17.337Z,28.00
2018-06-29T08:34:45.146Z,28.70
2018-06-29T08:37:13.041Z,29.20
2018-06-29T08:39:40.977Z,28.40
2018-06-29T08:42:08.834Z,29.10
2018-06-29T08:44:36.713Z,28.80
2018-06-29T08:47:10.312Z,29.00
2018-06-29T08:52:06.254Z,29.10
2018-06-29T08:54:34.161Z,29.50
2018-06-29T08:57:02.109Z,29.30
2018-06-29T08:59:30.018Z,29.00
2018-06-29T09:01:57.966Z,28.60
2018-06-29T09:04:25.776Z,28.40
2018-06-29T09:06:53.666Z,28.40
2018-06-29T09:11:49.417Z,27.50
2018-06-29T09:14:18.392Z,27.40
2018-06-29T09:16:52.118Z,27.80
2018-06-29T09:19:20.135Z,27.90
2018-06-29T09:21:56.901Z,27.90
2018-06-29T09:24:26.689Z,28.10
2018-06-29T09:26:54.582Z,27.80
2018-06-29T09:29:25.517Z,27.60
2018-06-29T09:31:53.457Z,27.50
2018-06-29T09:34:21.341Z,27.40
2018-06-29T09:36:49.835Z,27.60
2018-06-29T09:39:17.729Z,27.60
2018-06-29T09:41:45.577Z,27.90
2018-06-29T09:44:13.662Z,27.80
2018-06-29T09:46:41.641Z,27.70
2018-06-29T09:49:09.576Z,27.90
2018-06-29T09:51:37.469Z,27.80
2018-06-29T09:54:05.624Z,28.00
2018-06-29T09:56:33.544Z,28.30
2018-06-29T09:59:01.602Z,28.80
2018-06-29T10:01:29.595Z,29.70
2018-06-29T10:03:57.415Z,31.10
2018-06-29T10:06:25.317Z,32.00
2018-06-29T10:08:53.116Z,33.20
2018-06-29T10:11:21.036Z,33.50
2018-06-29T10:13:48.936Z,33.80
2018-06-29T10:16:16.807Z,34.40
2018-06-29T10:18:44.629Z,34.50
2018-06-29T10:21:12.549Z,34.50
2018-06-29T10:23:40.421Z,34.90
2018-06-29T10:26:08.302Z,35.30
2018-06-29T10:28:36.242Z,35.00
2018-06-29T10:31:04.093Z,34.50
2018-06-29T10:33:31.950Z,34.80
2018-06-29T10:35:59.900Z,35.70
2018-06-29T10:38:27.757Z,36.50
2018-06-29T10:40:55.681Z,37.30
2018-06-29T10:43:23.541Z,37.30
2018-06-29T10:45:51.341Z,36.70
2018-06-29T10:48:19.241Z,38.50
2018-06-29T10:53:15.042Z,38.30
2018-06-29T10:55:42.983Z,38.80
2018-06-29T10:58:12.909Z,37.70
2018-06-29T11:00:40.928Z,38.70
2018-06-29T11:03:08.749Z,38.70
2018-06-29T11:05:36.680Z,38.80
2018-06-29T11:08:04.749Z,39.30
2018-06-29T11:10:32.641Z,39.10
2018-06-29T11:13:01.686Z,39.70
2018-06-29T11:15:33.579Z,39.00
2018-06-29T11:18:01.472Z,38.80
2018-06-29T11:20:29.364Z,38.80
2018-06-29T11:22:57.201Z,37.80
2018-06-29T11:25:25.075Z,37.00
2018-06-29T11:27:52.901Z,38.20
2018-06-29T11:30:20.776Z,39.10
2018-06-29T11:32:49.040Z,40.20
2018-06-29T11:35:16.959Z,39.80
2018-06-29T11:37:44.789Z,40.60
2018-06-29T11:40:12.747Z,38.80
2018-06-29T11:42:40.706Z,39.10
2018-06-29T11:45:08.599Z,39.90
2018-06-29T11:47:36.684Z,40.00
2018-06-29T11:50:04.972Z,40.40
2018-06-29T11:52:32.883Z,40.80
2018-06-29T11:55:00.784Z,40.20
2018-06-29T11:57:28.709Z,40.70
2018-06-29T11:59:56.601Z,40.10
2018-06-29T12:02:24.400Z,39.90
2018-06-29T12:04:52.301Z,39.20
2018-06-29T12:07:20.263Z,39.00
2018-06-29T12:09:48.065Z,38.40
2018-06-29T12:12:15.989Z,39.60
2018-06-29T12:14:43.948Z,39.80
2018-06-29T12:19:42.703Z,39.70
2018-06-29T12:22:10.543Z,39.60
2018-06-29T12:24:38.468Z,39.80
2018-06-29T12:27:06.341Z,38.90
2018-06-29T12:29:34.181Z,38.50
2018-06-29T12:32:02.041Z,38.30
2018-06-29T12:34:29.996Z,39.80
2018-06-29T12:36:57.968Z,39.80
2018-06-29T12:39:25.817Z,39.60
2018-06-29T12:41:53.665Z,39.20
2018-06-29T12:44:21.549Z,36.90
2018-06-29T12:46:49.374Z,37.40
2018-06-29T12:49:17.277Z,36.80
2018-06-29T12:51:45.195Z,37.20
2018-06-29T12:54:13.141Z,37.20
2018-06-29T12:56:41.069Z,37.60
2018-06-29T12:59:09.873Z,37.70
2018-06-29T13:01:37.853Z,38.00
2018-06-29T13:04:05.804Z,38.90
2018-06-29T13:06:33.800Z,39.00
2018-06-29T13:09:01.706Z,38.30
2018-06-29T13:11:29.508Z,38.60
2018-06-29T13:13:57.457Z,37.40
2018-06-29T13:16:25.277Z,37.40
2018-06-29T13:21:20.989Z,38.50
2018-06-29T13:23:48.890Z,38.80
2018-06-29T13:26:16.725Z,38.30
2018-06-29T13:28:44.517Z,37.20
2018-06-29T13:36:08.171Z,36.00
2018-06-29T13:38:36.065Z,35.70
2018-06-29T13:41:04.037Z,35.60
2018-06-29T13:43:31.936Z,35.90
2018-06-29T13:45:59.824Z,36.20
2018-06-29T13:50:55.521Z,36.30
2018-06-29T13:53:23.473Z,35.40
2018-06-29T13:55:51.349Z,35.20
2018-06-29T13:58:19.215Z,35.40
2018-06-29T14:00:48.222Z,35.10
2018-06-29T14:03:16.129Z,35.10
2018-06-29T14:05:47.585Z,34.00
2018-06-29T14:08:18.563Z,33.80
2018-06-29T14:10:46.596Z,33.80
2018-06-29T14:18:10.341Z,33.80
2018-06-29T14:23:06.272Z,33.90
2018-06-29T14:25:34.193Z,33.70
2018-06-29T14:28:02.090Z,33.40
2018-06-29T14:32:57.845Z,33.00
2018-06-29T14:35:25.689Z,32.80
2018-06-29T14:37:53.985Z,32.90
2018-06-29T14:40:21.869Z,32.70
2018-06-29T14:42:49.789Z,32.70
2018-06-29T14:45:17.718Z,32.40
2018-06-29T14:47:45.597Z,32.30
2018-06-29T14:50:13.488Z,32.10
2018-06-29T14:52:41.324Z,31.70
2018-06-29T14:55:09.272Z,31.80
2018-06-29T14:57:37.230Z,32.00
2018-06-29T15:00:07.892Z,32.20
2018-06-29T15:02:35.769Z,31.90
2018-06-29T15:05:03.726Z,31.60
2018-06-29T15:07:31.617Z,32.10
2018-06-29T15:09:59.505Z,32.00
2018-06-29T15:12:27.393Z,32.00
2018-06-29T15:14:55.277Z,31.60
2018-06-29T15:17:23.140Z,31.10
2018-06-29T15:19:50.971Z,31.30
2018-06-29T15:22:18.921Z,30.80
2018-06-29T15:24:46.781Z,30.90
2018-06-29T15:27:14.693Z,30.80
2018-06-29T15:29:42.709Z,31.20
2018-06-29T15:32:10.569Z,31.30
2018-06-29T15:34:38.653Z,31.70
2018-06-29T15:37:06.698Z,31.70
2018-06-29T15:39:34.585Z,31.30
2018-06-29T15:42:03.819Z,31.00
2018-06-29T15:44:33.202Z,30.90
2018-06-29T15:47:04.699Z,31.50
2018-06-29T15:49:38.526Z,31.50
2018-06-29T15:52:06.470Z,31.50
2018-06-29T15:57:03.688Z,31.20
2018-06-29T15:59:31.548Z,31.00
2018-06-29T16:01:59.618Z,31.20
2018-06-29T16:04:27.556Z,31.00
2018-06-29T16:06:55.779Z,30.90
2018-06-29T16:09:23.656Z,30.70
2018-06-29T16:11:51.874Z,30.60
2018-06-29T16:14:19.705Z,30.60
2018-06-29T16:16:47.601Z,30.50
2018-06-29T16:19:15.581Z,30.70
2018-06-29T16:21:43.502Z,30.80
2018-06-29T16:24:11.555Z,30.80
2018-06-29T16:26:39.585Z,30.60
2018-06-29T16:29:07.490Z,30.60
2018-06-29T16:31:35.390Z,30.60
2018-06-29T16:34:03.361Z,30.40
2018-06-29T16:36:31.321Z,30.40
2018-06-29T16:38:59.493Z,30.50
2018-06-29T16:41:27.745Z,30.50
2018-06-29T16:43:55.699Z,30.50
2018-06-29T16:46:23.627Z,30.50
2018-06-29T16:48:51.586Z,30.30
2018-06-29T16:51:20.109Z,30.20
2018-06-29T16:56:15.933Z,30.30
2018-06-29T16:58:43.825Z,30.30
2018-06-29T17:01:11.853Z,30.20
2018-06-29T17:03:39.908Z,30.10
2018-06-29T17:06:07.847Z,30.10
2018-06-29T17:08:35.838Z,30.10
2018-06-29T17:11:03.837Z,30.10
2018-06-29T17:13:32.228Z,30.10
2018-06-29T17:16:00.124Z,29.90
2018-06-29T17:20:55.975Z,29.90
2018-06-29T17:23:24.017Z,29.60
2018-06-29T17:25:51.929Z,29.80
2018-06-29T17:28:19.847Z,29.60
2018-06-29T17:30:47.760Z,29.60
2018-06-29T17:33:15.649Z,29.50
2018-06-29T17:35:43.549Z,29.40
2018-06-29T17:38:11.805Z,29.30
2018-06-29T17:40:39.734Z,29.30
2018-06-29T17:43:07.561Z,29.30
2018-06-29T17:48:03.378Z,29.30
2018-06-29T17:50:31.325Z,29.20
2018-06-29T17:52:59.190Z,29.10
2018-06-29T17:55:27.138Z,29.00
2018-06-29T17:57:54.982Z,28.90
2018-06-29T18:00:22.876Z,28.80
2018-06-29T18:05:18.724Z,28.70
2018-06-29T18:07:46.666Z,28.70
2018-06-29T18:10:14.652Z,28.60
2018-06-29T18:12:42.760Z,28.50
2018-06-29T18:15:11.875Z,28.40
2018-06-29T18:17:40.824Z,28.40
2018-06-29T18:20:09.782Z,28.40
2018-06-29T18:22:37.773Z,28.30
2018-06-29T18:25:06.698Z,28.20
2018-06-29T18:27:34.654Z,28.10
2018-06-29T18:30:03.126Z,28.00
2018-06-29T18:32:31.003Z,28.00
2018-06-29T18:35:02.679Z,27.90
2018-06-29T18:37:30.648Z,27.80
2018-06-29T18:39:58.629Z,27.80
2018-06-29T18:42:26.558Z,27.70
2018-06-29T18:44:54.548Z,27.50
2018-06-29T18:47:22.382Z,27.50
2018-06-29T18:49:50.609Z,27.40
2018-06-29T18:52:18.407Z,27.30
2018-06-29T18:54:46.272Z,27.20
2018-06-29T18:57:14.193Z,27.20
2018-06-29T18:59:42.141Z,27.10
2018-06-29T19:02:11.110Z,27.10
2018-06-29T19:04:38.944Z,27.00
2018-06-29T19:07:07.077Z,26.90
2018-06-29T19:12:11.053Z,26.60
2018-06-29T19:14:38.977Z,26.60
2018-06-29T19:17:08.109Z,26.50
2018-06-29T19:19:45.917Z,26.50
2018-06-29T19:22:14.197Z,26.40
2018-06-29T19:24:42.093Z,26.30
2018-06-29T19:27:09.950Z,26.20
2018-06-29T19:29:37.876Z,26.10
2018-06-29T19:32:05.757Z,26.00
2018-06-29T19:34:33.647Z,25.90
2018-06-29T19:37:01.572Z,25.80
2018-06-29T19:39:29.566Z,25.60
2018-06-29T19:41:57.345Z,25.50
2018-06-29T19:44:25.306Z,25.40
2018-06-29T19:46:53.224Z,25.30
2018-06-29T19:49:21.221Z,25.20
2018-06-29T19:51:49.105Z,25.10
2018-06-29T19:54:17.081Z,25.00
2018-06-29T19:56:44.984Z,25.00
2018-06-29T19:59:12.889Z,24.80
2018-06-29T20:01:40.833Z,24.80
2018-06-29T20:04:08.773Z,24.70
2018-06-29T20:06:36.577Z,24.50
2018-06-29T20:09:08.796Z,24.40
2018-06-29T20:11:36.854Z,24.40
2018-06-29T20:14:04.774Z,24.20
2018-06-29T20:16:32.668Z,24.20
2018-06-29T20:19:04.533Z,24.10
2018-06-29T20:21:32.505Z,24.10
2018-06-29T20:24:00.453Z,24.00
2018-06-29T20:26:28.468Z,23.90
2018-06-29T20:28:56.433Z,23.90
2018-06-29T20:31:24.387Z,23.70
2018-06-29T20:33:52.325Z,23.70
2018-06-29T20:36:20.190Z,23.60
2018-06-29T20:38:48.147Z,23.50
2018-06-29T20:41:16.084Z,23.40
2018-06-29T20:43:44.037Z,23.50
2018-06-29T20:46:12.009Z,23.30
2018-06-29T20:48:39.854Z,23.30
2018-06-29T20:51:07.753Z,23.10
2018-06-29T20:53:35.729Z,23.10
2018-06-29T20:56:03.681Z,23.00
2018-06-29T20:58:31.547Z,22.90
2018-06-29T21:00:59.423Z,22.90
2018-06-29T21:03:27.389Z,22.70
2018-06-29T21:05:55.357Z,22.60
2018-06-29T21:08:23.300Z,22.80
2018-06-29T21:10:51.296Z,22.70
2018-06-29T21:13:19.185Z,22.60
2018-06-29T21:15:47.197Z,22.60
2018-06-29T21:18:15.069Z,22.60
2018-06-29T21:20:42.982Z,22.60
2018-06-29T21:23:10.873Z,22.70
2018-06-29T21:25:38.741Z,22.50
2018-06-29T21:28:06.637Z,22.60
2018-06-29T21:30:34.625Z,22.50
2018-06-29T21:33:02.622Z,22.50
2018-06-29T21:35:30.564Z,22.40
2018-06-29T21:37:58.405Z,22.20
2018-06-29T21:40:26.350Z,22.20
2018-06-29T21:42:54.228Z,22.10
2018-06-29T21:45:22.169Z,22.10
2018-06-29T21:47:50.036Z,22.00
2018-06-29T21:50:17.974Z,21.90
2018-06-29T21:52:48.931Z,21.90
2018-06-29T21:55:20.027Z,21.90
2018-06-29T21:57:49.807Z,21.80
2018-06-29T22:00:19.314Z,21.70
2018-06-29T22:02:47.260Z,21.80
2018-06-29T22:05:16.363Z,21.70
2018-06-29T22:07:44.637Z,21.60
2018-06-29T22:10:14.642Z,21.60
2018-06-29T22:12:45.683Z,21.50
2018-06-29T22:15:20.879Z,21.50
2018-06-29T22:25:14.874Z,21.10
2018-06-29T22:27:42.753Z,21.00
2018-06-29T22:30:10.682Z,20.90
2018-06-29T22:32:39.352Z,20.90
2018-06-29T22:35:07.351Z,20.80
2018-06-29T22:37:36.933Z,20.80
2018-06-29T22:40:06.718Z,20.70
2018-06-29T22:42:35.929Z,20.60
2018-06-29T22:45:06.747Z,20.60
2018-06-29T22:50:02.715Z,20.40
2018-06-29T22:52:30.629Z,20.40
2018-06-29T22:54:58.489Z,20.30
2018-06-29T22:57:26.427Z,20.30
2018-06-29T22:59:54.360Z,20.20
2018-06-29T23:02:22.237Z,20.30
2018-06-29T23:04:50.152Z,20.20
2018-06-29T23:07:18.018Z,20.30
2018-06-29T23:09:45.920Z,20.30
2018-06-29T23:12:13.854Z,20.20
2018-06-29T23:14:46.276Z,20.20
2018-06-29T23:17:14.193Z,20.30
2018-06-29T23:19:42.043Z,20.20
2018-06-29T23:22:10.445Z,20.10
2018-06-29T23:24:40.782Z,20.10
2018-06-29T23:27:08.641Z,20.10
2018-06-29T23:29:36.576Z,20.00
2018-06-29T23:32:04.432Z,20.10
2018-06-29T23:34:32.282Z,19.90
2018-06-29T23:37:00.202Z,20.00
2018-06-29T23:39:28.125Z,19.90
2018-06-29T23:41:56.070Z,19.90
2018-06-29T23:44:29.465Z,19.90
2018-06-29T23:46:57.679Z,20.00
2018-06-29T23:49:25.597Z,19.80
2018-06-29T23:51:53.604Z,19.80
2018-06-29T23:54:21.520Z,19.80
2018-06-29T23:56:49.459Z,19.70
2018-06-29T23:59:17.357Z,19.60
